Time;durP1;ratioP1;P1;durP2;ratioP2;P2;SDS_P1;SDS_P2;PMS_P1;PMS_P2;Temp;Humidity;BMP_temperature;BMP_pressure;BME280_temperature;BME280_humidity;BME280_pressure;Samples;Min_cycle;Max_cycle;Signal;HPM_P1;HPM_P2
2023/08/12 00:01:05;;;;;;;8.88;6.57;;;20.10;99.90;;;;;;5040390;28;20036;-84
2023/08/12 00:03:31;;;;;;;10.40;6.45;;;20.10;99.90;;;;;;5052161;28;20473;-84
2023/08/12 00:06:00;;;;;;;8.00;6.35;;;20.10;99.90;;;;;;5013162;28;20049;-83
2023/08/12 00:08:26;;;;;;;8.45;6.20;;;20.00;99.90;;;;;;5010729;28;20036;-84
2023/08/12 00:10:51;;;;;;;10.60;6.70;;;20.00;99.90;;;;;;5018435;28;20033;-84
2023/08/12 00:13:17;;;;;;;7.93;6.53;;;20.00;99.90;;;;;;5019044;28;20543;-84
2023/08/12 00:15:44;;;;;;;7.22;6.45;;;20.00;99.90;;;;;;5035260;28;20051;-84
2023/08/12 00:18:10;;;;;;;7.43;6.07;;;20.00;99.90;;;;;;5043787;28;20045;-84
2023/08/12 00:20:37;;;;;;;9.10;6.40;;;20.00;99.90;;;;;;5020421;28;20052;-84
2023/08/12 00:23:04;;;;;;;8.30;5.93;;;19.90;99.90;;;;;;5019661;28;20072;-84
2023/08/12 00:25:30;;;;;;;6.95;5.50;;;19.90;99.90;;;;;;5038157;28;20052;-84
2023/08/12 00:27:55;;;;;;;8.25;5.70;;;19.90;99.90;;;;;;5035829;28;20041;-84
2023/08/12 00:30:21;;;;;;;6.78;5.00;;;19.80;99.90;;;;;;5034750;28;20059;-84
2023/08/12 00:32:47;;;;;;;6.97;5.20;;;19.80;99.90;;;;;;5023509;28;20041;-83
2023/08/12 00:35:12;;;;;;;7.32;4.57;;;19.80;99.90;;;;;;5018351;28;20033;-84
2023/08/12 00:37:38;;;;;;;8.77;4.40;;;19.80;99.90;;;;;;5034880;28;20049;-84
2023/08/12 00:40:06;;;;;;;6.75;4.55;;;19.80;99.90;;;;;;5051488;28;20416;-84
2023/08/12 00:42:32;;;;;;;7.00;4.50;;;19.80;99.90;;;;;;5034320;28;20044;-83
2023/08/12 00:44:58;;;;;;;8.35;4.35;;;19.70;99.90;;;;;;5034544;28;20049;-83
2023/08/12 00:47:24;;;;;;;7.50;4.68;;;19.70;99.90;;;;;;5038307;28;20069;-84
2023/08/12 00:49:51;;;;;;;8.63;4.35;;;19.70;99.90;;;;;;5050195;28;20037;-84
2023/08/12 00:52:18;;;;;;;6.10;4.13;;;19.70;99.90;;;;;;5051354;28;20045;-83
2023/08/12 00:54:44;;;;;;;8.15;4.85;;;19.70;99.90;;;;;;5015893;28;20033;-84
2023/08/12 00:57:10;;;;;;;6.28;4.35;;;19.60;99.90;;;;;;5054110;28;20117;-83
2023/08/12 00:59:39;;;;;;;6.60;4.15;;;19.60;99.90;;;;;;5015391;28;20116;-84
2023/08/12 01:02:05;;;;;;;6.68;4.40;;;19.60;99.90;;;;;;5035082;28;20038;-83
2023/08/12 01:04:31;;;;;;;6.07;4.55;;;19.60;99.90;;;;;;5018124;28;20397;-83
2023/08/12 01:06:56;;;;;;;5.82;5.00;;;19.60;99.90;;;;;;5051371;28;20047;-83
2023/08/12 01:09:22;;;;;;;6.32;4.57;;;19.50;99.90;;;;;;5066403;28;20052;-83
2023/08/12 01:11:54;;;;;;;8.07;5.18;;;19.50;99.90;;;;;;5052512;28;20588;-83
2023/08/12 01:14:32;;;;;;;7.75;5.00;;;19.50;99.90;;;;;;5048855;28;20441;-83
2023/08/12 01:17:03;;;;;;;8.75;5.38;;;19.40;99.90;;;;;;5050779;28;20371;-84
2023/08/12 01:19:34;;;;;;;9.27;5.13;;;19.40;99.90;;;;;;5046208;28;20080;-84
2023/08/12 01:22:01;;;;;;;7.50;5.35;;;19.40;99.90;;;;;;5014953;28;20033;-83
2023/08/12 01:24:35;;;;;;;10.27;5.30;;;19.40;99.90;;;;;;5022369;28;20036;-83
2023/08/12 01:27:01;;;;;;;9.48;5.90;;;19.40;99.90;;;;;;5043509;28;20040;-83
2023/08/12 01:29:27;;;;;;;12.05;6.82;;;19.40;99.90;;;;;;5017421;28;20029;-84
2023/08/12 01:32:00;;;;;;;8.05;5.78;;;19.40;99.90;;;;;;5033790;28;20091;-84
2023/08/12 01:34:37;;;;;;;9.82;6.10;;;19.40;99.90;;;;;;5046766;28;20585;-83
2023/08/12 01:37:08;;;;;;;9.57;6.55;;;19.40;99.90;;;;;;5042739;28;20045;-84
2023/08/12 01:39:35;;;;;;;12.02;6.50;;;19.40;99.90;;;;;;5050276;28;20090;-83
2023/08/12 01:42:01;;;;;;;7.85;5.90;;;19.40;99.90;;;;;;5014995;28;20038;-84
2023/08/12 01:44:27;;;;;;;8.68;6.55;;;19.30;99.90;;;;;;5019746;28;20070;-83
2023/08/12 01:46:54;;;;;;;12.68;6.82;;;19.30;99.90;;;;;;5016909;28;20073;-83
2023/08/12 01:49:19;;;;;;;11.40;7.28;;;19.30;99.90;;;;;;5040166;28;20041;-84
2023/08/12 01:51:45;;;;;;;9.80;7.60;;;19.30;99.90;;;;;;5018047;28;20060;-83
2023/08/12 01:54:11;;;;;;;11.20;7.32;;;19.30;99.90;;;;;;5027499;28;20037;-84
2023/08/12 01:56:36;;;;;;;10.68;7.55;;;19.20;99.90;;;;;;5053688;28;20129;-84
2023/08/12 01:59:02;;;;;;;12.63;7.75;;;19.20;99.90;;;;;;5005401;28;20524;-84
2023/08/12 02:01:28;;;;;;;11.02;6.97;;;19.20;99.90;;;;;;5020283;28;20040;-84
2023/08/12 02:03:54;;;;;;;11.88;7.32;;;19.10;99.90;;;;;;5039935;28;20094;-84
2023/08/12 02:06:19;;;;;;;12.20;8.07;;;19.20;99.90;;;;;;5032002;28;20052;-84
2023/08/12 02:08:45;;;;;;;11.65;7.68;;;19.20;99.90;;;;;;5024600;28;20100;-84
2023/08/12 02:11:11;;;;;;;15.48;9.50;;;19.20;99.90;;;;;;5057322;28;20037;-84
2023/08/12 02:13:36;;;;;;;12.27;8.15;;;19.10;99.90;;;;;;5007941;28;20044;-84
2023/08/12 02:16:02;;;;;;;11.45;8.65;;;19.10;99.90;;;;;;5034970;28;20420;-84
2023/08/12 02:18:28;;;;;;;14.32;9.48;;;19.10;99.90;;;;;;5039052;28;20040;-84
2023/08/12 02:20:54;;;;;;;14.52;8.77;;;19.10;99.90;;;;;;5034753;28;20036;-84
2023/08/12 02:23:19;;;;;;;13.02;9.30;;;19.10;99.90;;;;;;5036365;28;20816;-84
2023/08/12 02:25:46;;;;;;;15.40;9.85;;;19.10;99.90;;;;;;5036319;28;20051;-84
2023/08/12 02:28:11;;;;;;;15.13;9.93;;;19.10;99.90;;;;;;5054800;28;20037;-84
2023/08/12 02:30:37;;;;;;;15.88;10.48;;;19.20;99.90;;;;;;5036556;28;20095;-84
2023/08/12 02:33:03;;;;;;;17.00;10.75;;;19.20;99.90;;;;;;5036624;28;20717;-84
2023/08/12 02:35:29;;;;;;;14.02;11.00;;;19.10;99.90;;;;;;5020767;28;20052;-84
2023/08/12 02:37:54;;;;;;;14.48;10.93;;;19.20;99.90;;;;;;5052080;28;20036;-85
2023/08/12 02:40:20;;;;;;;16.63;11.07;;;19.20;99.90;;;;;;5062491;28;20484;-84
2023/08/12 02:42:46;;;;;;;16.65;10.40;;;19.20;99.90;;;;;;5036775;28;20037;-84
2023/08/12 02:45:11;;;;;;;14.65;10.75;;;19.30;99.90;;;;;;5036583;28;20439;-84
2023/08/12 02:47:37;;;;;;;17.02;11.85;;;19.20;99.90;;;;;;5053282;28;20450;-85
2023/08/12 02:50:03;;;;;;;17.50;11.50;;;19.20;99.90;;;;;;5020372;28;20053;-84
2023/08/12 02:52:29;;;;;;;15.93;11.73;;;19.20;99.90;;;;;;5003984;28;20044;-84
2023/08/12 02:54:56;;;;;;;17.17;12.10;;;19.20;99.90;;;;;;5039322;28;20037;-85
2023/08/12 02:57:22;;;;;;;15.27;11.55;;;19.20;99.90;;;;;;5012045;28;20037;-83
2023/08/12 02:59:47;;;;;;;21.17;13.73;;;19.20;99.90;;;;;;5034891;28;20083;-84
2023/08/12 03:02:13;;;;;;;22.05;14.70;;;19.20;99.90;;;;;;5016277;28;20048;-85
2023/08/12 03:04:39;;;;;;;17.85;12.38;;;19.20;99.90;;;;;;5036227;28;20392;-84
2023/08/12 03:07:05;;;;;;;20.27;13.60;;;19.20;99.90;;;;;;5053683;28;20377;-84
2023/08/12 03:09:30;;;;;;;21.25;13.85;;;19.20;99.90;;;;;;5058398;28;20106;-84
2023/08/12 03:11:56;;;;;;;20.90;14.55;;;19.20;99.90;;;;;;5046473;28;20039;-84
2023/08/12 03:14:22;;;;;;;23.23;14.55;;;19.30;99.90;;;;;;5016140;28;20486;-84
2023/08/12 03:16:47;;;;;;;18.95;13.88;;;19.30;99.90;;;;;;5056929;28;20441;-84
2023/08/12 03:19:13;;;;;;;21.63;14.80;;;19.30;99.90;;;;;;5007853;28;20039;-84
2023/08/12 03:21:39;;;;;;;22.15;13.90;;;19.30;99.90;;;;;;5019450;28;20421;-84
2023/08/12 03:24:05;;;;;;;19.90;14.02;;;19.30;99.90;;;;;;5052755;28;20640;-84
2023/08/12 03:26:30;;;;;;;18.70;14.18;;;19.30;99.90;;;;;;5020173;28;20037;-84
2023/08/12 03:28:56;;;;;;;19.45;14.07;;;19.30;99.90;;;;;;5037532;28;20083;-84
2023/08/12 03:31:22;;;;;;;22.45;14.38;;;19.30;99.90;;;;;;5035377;28;20041;-84
2023/08/12 03:33:48;;;;;;;19.33;14.50;;;19.30;99.90;;;;;;5027284;28;20427;-84
2023/08/12 03:36:13;;;;;;;19.33;14.38;;;19.30;99.90;;;;;;5047824;28;20119;-84
2023/08/12 03:38:39;;;;;;;23.48;14.43;;;19.30;99.90;;;;;;5035231;28;20041;-84
2023/08/12 03:41:05;;;;;;;19.40;14.48;;;19.30;99.90;;;;;;5026084;28;20041;-84
2023/08/12 03:43:33;;;;;;;17.83;12.85;;;19.20;99.90;;;;;;5044211;28;20492;-84
2023/08/12 03:45:59;;;;;;;16.80;13.52;;;19.20;99.90;;;;;;5019589;28;20037;-84
2023/08/12 03:48:25;;;;;;;21.38;14.38;;;19.20;99.90;;;;;;5052370;28;20036;-84
2023/08/12 03:50:50;;;;;;;20.75;14.15;;;19.20;99.90;;;;;;5025931;28;20052;-84
2023/08/12 03:53:17;;;;;;;19.08;13.93;;;19.20;99.90;;;;;;5035889;28;20041;-84
2023/08/12 03:55:43;;;;;;;17.70;13.18;;;19.20;99.90;;;;;;5020026;28;20047;-84
2023/08/12 03:58:09;;;;;;;19.38;14.35;;;19.20;99.90;;;;;;5055193;28;20503;-84
2023/08/12 04:00:34;;;;;;;21.92;14.10;;;19.20;99.90;;;;;;5024313;28;20032;-84
2023/08/12 04:03:00;;;;;;;21.67;13.90;;;19.20;99.90;;;;;;5047616;28;20515;-84
2023/08/12 04:05:26;;;;;;;19.40;13.68;;;19.20;99.90;;;;;;5034920;28;20044;-84
2023/08/12 04:07:52;;;;;;;20.33;13.63;;;19.20;99.90;;;;;;5056234;28;20267;-84
2023/08/12 04:10:18;;;;;;;17.83;13.57;;;19.20;99.90;;;;;;5035780;28;20037;-84
2023/08/12 04:12:43;;;;;;;20.75;13.85;;;19.20;99.90;;;;;;5018863;28;20044;-84
2023/08/12 04:15:09;;;;;;;18.38;13.27;;;19.20;99.90;;;;;;5021054;28;20052;-83
2023/08/12 04:17:35;;;;;;;20.48;14.93;;;19.20;99.90;;;;;;5035422;28;20396;-84
2023/08/12 04:20:02;;;;;;;21.88;14.35;;;19.20;99.90;;;;;;5035994;28;20047;-84
2023/08/12 04:22:28;;;;;;;18.27;14.27;;;19.20;99.90;;;;;;5050847;28;20209;-84
2023/08/12 04:24:53;;;;;;;18.88;14.13;;;19.20;99.90;;;;;;5035542;28;20508;-85
2023/08/12 04:27:19;;;;;;;20.08;14.30;;;19.20;99.90;;;;;;5023370;28;20029;-85
2023/08/12 04:29:45;;;;;;;18.88;13.63;;;19.20;99.90;;;;;;5017474;28;20377;-84
2023/08/12 04:32:11;;;;;;;21.92;14.60;;;19.20;99.90;;;;;;5034845;28;20039;-85
2023/08/12 04:34:37;;;;;;;21.58;14.30;;;19.20;99.90;;;;;;5034669;28;20430;-84
2023/08/12 04:37:02;;;;;;;19.48;13.70;;;19.20;99.90;;;;;;5049953;28;20090;-84
2023/08/12 04:39:28;;;;;;;22.13;15.82;;;19.30;99.90;;;;;;5034752;28;20079;-84
2023/08/12 04:41:54;;;;;;;18.10;14.35;;;19.30;99.90;;;;;;5034904;28;20044;-85
2023/08/12 04:44:20;;;;;;;22.40;14.90;;;19.30;99.90;;;;;;5038306;28;20045;-84
2023/08/12 04:46:47;;;;;;;22.30;15.77;;;19.30;99.90;;;;;;5034103;28;20032;-84
2023/08/12 04:49:12;;;;;;;19.77;14.68;;;19.30;99.90;;;;;;5048969;28;20033;-85
2023/08/12 04:51:38;;;;;;;22.42;14.52;;;19.30;99.90;;;;;;5034554;28;20044;-85
2023/08/12 04:54:04;;;;;;;21.05;14.45;;;19.30;99.90;;;;;;5051107;28;20044;-84
2023/08/12 04:56:30;;;;;;;22.83;15.43;;;19.30;99.90;;;;;;5051474;28;20048;-84
2023/08/12 04:58:56;;;;;;;19.90;15.35;;;19.30;99.90;;;;;;5014236;28;20469;-85
2023/08/12 05:01:22;;;;;;;20.45;15.82;;;19.30;99.90;;;;;;5051955;28;20032;-85
2023/08/12 05:03:47;;;;;;;24.23;15.88;;;19.30;99.90;;;;;;5051288;28;20187;-85
2023/08/12 05:06:13;;;;;;;21.42;16.05;;;19.40;99.90;;;;;;5034284;28;20150;-84
2023/08/12 05:08:39;;;;;;;23.17;15.77;;;19.30;99.90;;;;;;5017223;28;20532;-84
2023/08/12 05:11:05;;;;;;;23.27;16.67;;;19.40;99.90;;;;;;5028167;28;20085;-84
2023/08/12 05:13:30;;;;;;;22.02;16.02;;;19.40;99.90;;;;;;5033756;28;20135;-84
2023/08/12 05:15:56;;;;;;;21.70;16.27;;;19.40;99.90;;;;;;5052634;28;20531;-84
2023/08/12 05:18:26;;;;;;;22.90;16.92;;;19.40;99.90;;;;;;5034706;28;20049;-84
2023/08/12 05:20:52;;;;;;;26.33;16.00;;;19.40;99.90;;;;;;5033495;28;20073;-85
2023/08/12 05:23:20;;;;;;;22.08;15.65;;;19.40;99.90;;;;;;5033504;28;20175;-85
2023/08/12 05:25:46;;;;;;;23.40;16.23;;;19.40;99.90;;;;;;5033541;28;20037;-85
2023/08/12 05:28:12;;;;;;;24.45;16.23;;;19.40;99.90;;;;;;5030900;28;20421;-84
2023/08/12 05:30:38;;;;;;;23.10;16.77;;;19.40;99.90;;;;;;5017670;28;20041;-85
2023/08/12 05:33:04;;;;;;;26.45;17.10;;;19.40;99.90;;;;;;5037647;28;20052;-84
2023/08/12 05:35:36;;;;;;;20.40;16.73;;;19.40;99.90;;;;;;5032933;28;20408;-84
2023/08/12 05:38:02;;;;;;;27.00;17.80;;;19.50;99.90;;;;;;5017228;28;20072;-85
2023/08/12 05:40:28;;;;;;;25.45;17.73;;;19.50;99.90;;;;;;5050976;28;20029;-85
2023/08/12 05:42:54;;;;;;;23.98;17.50;;;19.60;99.90;;;;;;5055351;28;20048;-84
2023/08/12 05:45:20;;;;;;;22.92;17.10;;;19.60;99.90;;;;;;5036867;28;20131;-84
2023/08/12 05:47:45;;;;;;;26.25;19.92;;;19.60;99.90;;;;;;5049057;28;20044;-85
2023/08/12 05:50:11;;;;;;;25.65;18.50;;;19.60;99.90;;;;;;5034037;28;20044;-85
2023/08/12 05:52:37;;;;;;;26.52;19.17;;;19.70;99.90;;;;;;5051576;28;20071;-84
2023/08/12 05:55:03;;;;;;;31.88;20.70;;;19.70;99.90;;;;;;5018735;28;20091;-85
2023/08/12 05:57:29;;;;;;;26.05;20.33;;;19.80;99.90;;;;;;5019898;28;20048;-85
2023/08/12 05:59:55;;;;;;;29.33;20.55;;;19.80;99.90;;;;;;5026698;28;20107;-85
2023/08/12 06:02:20;;;;;;;26.60;21.10;;;19.80;99.90;;;;;;5035820;28;20051;-85
2023/08/12 06:04:46;;;;;;;26.33;18.77;;;19.90;99.90;;;;;;5035966;28;20123;-84
2023/08/12 06:07:12;;;;;;;28.10;19.52;;;19.90;99.90;;;;;;5014347;28;20036;-83
2023/08/12 06:09:38;;;;;;;26.38;19.95;;;20.00;99.90;;;;;;5018975;28;20079;-84
2023/08/12 06:12:04;;;;;;;26.63;19.98;;;20.00;99.90;;;;;;5023250;28;20395;-83
2023/08/12 06:14:29;;;;;;;27.88;19.15;;;20.10;99.90;;;;;;5020592;28;20048;-84
2023/08/12 06:16:55;;;;;;;30.60;20.40;;;20.20;99.90;;;;;;5033641;28;20156;-83
2023/08/12 06:19:21;;;;;;;26.85;20.42;;;20.20;99.90;;;;;;5034153;28;20492;-84
2023/08/12 06:21:46;;;;;;;26.10;20.83;;;20.30;99.90;;;;;;5035597;28;20045;-84
2023/08/12 06:24:12;;;;;;;25.98;18.77;;;20.30;99.90;;;;;;5038139;28;20045;-83
2023/08/12 06:26:38;;;;;;;24.92;18.60;;;20.40;99.90;;;;;;5033626;28;20045;-84
2023/08/12 06:29:04;;;;;;;27.00;19.60;;;20.40;99.90;;;;;;5051267;28;20044;-84
2023/08/12 06:31:29;;;;;;;27.98;20.38;;;20.40;99.90;;;;;;5017075;28;20515;-84
2023/08/12 06:33:55;;;;;;;25.40;18.55;;;20.40;99.90;;;;;;5052880;28;20041;-84
2023/08/12 06:36:21;;;;;;;25.23;18.05;;;20.40;99.90;;;;;;5033336;28;20114;-83
2023/08/12 06:38:46;;;;;;;26.77;19.30;;;20.30;99.90;;;;;;5022147;28;20128;-84
2023/08/12 06:41:12;;;;;;;24.60;17.67;;;20.40;99.90;;;;;;5063087;28;20059;-84
2023/08/12 06:43:38;;;;;;;26.08;18.48;;;20.40;99.90;;;;;;5060318;28;20041;-84
2023/08/12 06:46:03;;;;;;;26.50;18.48;;;20.30;99.90;;;;;;5035561;28;20083;-84
2023/08/12 06:48:29;;;;;;;21.77;17.48;;;20.40;99.90;;;;;;5018068;28;20044;-85
2023/08/12 06:50:56;;;;;;;24.80;17.75;;;20.40;99.90;;;;;;5025320;28;20116;-85
2023/08/12 06:53:22;;;;;;;27.95;19.10;;;20.40;99.90;;;;;;5061539;28;20040;-85
2023/08/12 06:55:48;;;;;;;26.38;18.60;;;20.40;99.90;;;;;;5035177;28;20037;-84
2023/08/12 06:58:17;;;;;;;28.58;19.33;;;20.40;99.90;;;;;;5048388;28;21426;-86
2023/08/12 07:00:43;;;;;;;28.85;20.35;;;20.50;99.90;;;;;;5037443;28;20485;-85
2023/08/12 07:03:09;;;;;;;26.80;20.67;;;20.50;99.90;;;;;;5043758;28;20045;-85
2023/08/12 07:05:35;;;;;;;33.50;23.15;;;20.50;99.90;;;;;;5043650;28;20785;-85
2023/08/12 07:08:04;;;;;;;31.35;22.45;;;20.40;99.90;;;;;;5022470;28;20043;-83
2023/08/12 07:10:30;;;;;;;31.50;23.23;;;20.40;99.90;;;;;;5037724;28;20036;-84
2023/08/12 07:12:56;;;;;;;31.67;23.00;;;20.40;99.90;;;;;;5046923;28;20490;-85
2023/08/12 07:15:21;;;;;;;32.15;23.55;;;20.40;99.90;;;;;;5036674;28;20131;-85
2023/08/12 07:17:47;;;;;;;32.63;24.17;;;20.40;99.90;;;;;;5036915;28;20503;-85
2023/08/12 07:20:13;;;;;;;31.77;23.15;;;20.40;99.90;;;;;;5036693;28;20093;-85
2023/08/12 07:22:38;;;;;;;35.63;24.48;;;20.40;99.90;;;;;;5045077;28;20044;-85
2023/08/12 07:25:05;;;;;;;32.75;24.77;;;20.40;99.90;;;;;;5067541;28;20048;-85
2023/08/12 07:27:30;;;;;;;33.85;25.20;;;20.40;99.90;;;;;;5028480;28;20630;-85
2023/08/12 07:29:56;;;;;;;34.45;25.55;;;20.40;99.90;;;;;;5032494;28;20131;-86
2023/08/12 07:32:22;;;;;;;31.10;24.42;;;20.40;99.90;;;;;;5030255;28;20041;-85
2023/08/12 07:34:48;;;;;;;33.85;24.10;;;20.50;99.90;;;;;;5036561;28;20388;-85
2023/08/12 07:37:13;;;;;;;36.33;25.17;;;20.50;99.90;;;;;;5045444;28;20036;-85
2023/08/12 07:39:39;;;;;;;36.47;25.17;;;20.50;99.90;;;;;;5036409;28;20068;-86
2023/08/12 07:42:05;;;;;;;33.22;25.50;;;20.40;99.90;;;;;;5036410;28;20032;-85
2023/08/12 07:44:31;;;;;;;36.38;27.30;;;20.50;99.90;;;;;;5056110;28;20048;-84
2023/08/12 07:46:56;;;;;;;32.30;24.92;;;20.40;99.90;;;;;;5026905;28;20098;-85
2023/08/12 07:49:22;;;;;;;35.40;26.30;;;20.40;99.90;;;;;;5044357;28;20123;-86
2023/08/12 07:51:48;;;;;;;33.33;26.25;;;20.40;99.90;;;;;;5045401;28;20562;-85
2023/08/12 07:54:14;;;;;;;36.30;27.35;;;20.40;99.90;;;;;;5042286;28;20036;-84
2023/08/12 07:56:40;;;;;;;35.92;26.67;;;20.40;99.90;;;;;;5052171;28;20184;-85
2023/08/12 07:59:06;;;;;;;35.13;26.90;;;20.40;99.90;;;;;;5052937;28;20048;-84
2023/08/12 08:01:31;;;;;;;36.38;26.52;;;20.40;99.90;;;;;;5054695;28;20064;-85
2023/08/12 08:03:57;;;;;;;38.28;27.20;;;20.40;99.90;;;;;;5048371;28;20044;-84
2023/08/12 08:06:23;;;;;;;35.38;27.60;;;20.40;99.90;;;;;;5025109;28;20048;-87
2023/08/12 08:08:49;;;;;;;40.15;27.95;;;20.40;99.90;;;;;;5054948;28;20090;-85
2023/08/12 08:11:15;;;;;;;37.88;27.55;;;20.40;99.90;;;;;;5052105;28;20048;-88
2023/08/12 08:13:41;;;;;;;33.17;26.38;;;20.40;99.90;;;;;;5035701;28;20044;-82
2023/08/12 08:16:06;;;;;;;37.30;26.70;;;20.40;99.90;;;;;;5030270;28;20473;-85
2023/08/12 08:18:32;;;;;;;40.00;27.33;;;20.40;99.90;;;;;;5035226;28;20048;-84
2023/08/12 08:20:58;;;;;;;37.50;26.50;;;20.40;99.90;;;;;;5035366;28;20305;-84
2023/08/12 08:23:24;;;;;;;35.60;27.70;;;20.40;99.90;;;;;;5039181;28;20076;-85
2023/08/12 08:25:50;;;;;;;37.67;29.00;;;20.30;99.90;;;;;;5051775;28;20072;-85
2023/08/12 08:28:17;;;;;;;40.80;27.85;;;20.40;99.90;;;;;;5045432;28;20044;-84
2023/08/12 08:30:43;;;;;;;37.20;27.92;;;20.40;99.90;;;;;;5035587;28;20055;-85
2023/08/12 08:33:09;;;;;;;50.22;31.20;;;20.40;99.90;;;;;;5035096;28;20123;-83
2023/08/12 08:35:34;;;;;;;39.47;27.95;;;20.30;99.90;;;;;;5028257;28;20049;-83
2023/08/12 08:38:00;;;;;;;35.63;26.85;;;20.40;99.90;;;;;;5034859;28;20049;-83
2023/08/12 08:40:27;;;;;;;38.33;27.35;;;20.30;99.90;;;;;;5051242;28;20043;-84
2023/08/12 08:42:53;;;;;;;40.70;29.05;;;20.30;99.90;;;;;;5055655;28;20499;-84
2023/08/12 08:45:21;;;;;;;40.90;27.75;;;20.30;99.90;;;;;;5054432;28;20051;-84
2023/08/12 08:47:49;;;;;;;39.92;28.08;;;20.30;99.90;;;;;;5053853;28;20044;-86
2023/08/12 08:50:15;;;;;;;39.05;27.70;;;20.30;99.90;;;;;;5035918;28;20049;-85
2023/08/12 08:52:43;;;;;;;36.25;26.83;;;20.30;99.90;;;;;;5030790;28;20079;-85
2023/08/12 08:55:09;;;;;;;33.60;24.20;;;20.30;99.90;;;;;;5051572;28;20044;-84
2023/08/12 08:57:37;;;;;;;32.20;24.77;;;20.30;99.90;;;;;;5038824;28;20765;-86
2023/08/12 09:00:07;;;;;;;27.58;22.25;;;20.30;99.90;;;;;;5035018;28;20056;-84
2023/08/12 09:02:33;;;;;;;30.42;22.38;;;20.30;99.90;;;;;;5033092;28;20044;-85
2023/08/12 09:05:01;;;;;;;28.40;22.40;;;20.30;99.90;;;;;;5068164;28;20056;-88
2023/08/12 09:07:29;;;;;;;25.83;20.90;;;20.20;99.90;;;;;;5034635;28;20794;-85
2023/08/12 09:09:56;;;;;;;26.05;20.50;;;20.20;99.90;;;;;;5051211;28;20119;-87
2023/08/12 09:12:22;;;;;;;27.73;20.67;;;20.20;99.90;;;;;;5051505;28;20037;-85
2023/08/12 09:14:48;;;;;;;23.80;20.20;;;20.20;99.90;;;;;;5034267;28;20037;-85
2023/08/12 09:17:14;;;;;;;19.60;16.10;;;20.10;99.90;;;;;;5050906;28;20526;-85
2023/08/12 09:19:40;;;;;;;15.82;13.27;;;20.10;99.90;;;;;;5050129;28;20049;-85
2023/08/12 09:22:10;;;;;;;13.68;11.18;;;20.00;99.90;;;;;;5050504;28;20059;-85
2023/08/12 09:24:36;;;;;;;13.80;10.30;;;20.00;99.90;;;;;;5050434;28;20045;-84
2023/08/12 09:27:03;;;;;;;10.90;9.45;;;19.90;99.90;;;;;;5008661;28;20457;-85
2023/08/12 09:29:33;;;;;;;13.73;9.77;;;19.90;99.90;;;;;;5050350;28;20044;-84
2023/08/12 09:32:13;;;;;;;10.25;8.73;;;19.90;99.90;;;;;;5048289;28;20045;-83
2023/08/12 09:34:51;;;;;;;10.27;9.13;;;19.80;99.90;;;;;;5033914;28;20094;-85
2023/08/12 09:37:17;;;;;;;9.82;8.82;;;19.80;99.90;;;;;;5056544;28;20106;-84
2023/08/12 09:39:43;;;;;;;14.88;10.70;;;19.80;99.90;;;;;;5047383;28;20078;-82
2023/08/12 09:42:10;;;;;;;10.98;9.63;;;19.80;99.90;;;;;;5050766;28;20041;-85
2023/08/12 09:44:39;;;;;;;11.40;10.18;;;19.80;99.90;;;;;;5050729;28;20033;-86
2023/08/12 09:47:08;;;;;;;12.40;10.30;;;19.80;99.90;;;;;;5050807;28;20492;-86
2023/08/12 09:49:35;;;;;;;12.25;10.95;;;19.80;99.90;;;;;;5034242;28;20123;-86
2023/08/12 09:52:02;;;;;;;12.50;10.35;;;19.80;99.90;;;;;;5050618;28;20132;-87
2023/08/12 09:54:31;;;;;;;14.45;11.07;;;19.80;99.90;;;;;;5050966;28;20052;-87
2023/08/12 09:56:59;;;;;;;14.35;11.23;;;19.80;99.90;;;;;;5051046;28;20053;-87
2023/08/12 09:59:31;;;;;;;15.25;11.63;;;19.80;99.90;;;;;;5034320;28;20082;-86
2023/08/12 10:01:57;;;;;;;16.85;12.60;;;19.90;99.90;;;;;;5047229;28;20423;-87
2023/08/12 10:04:26;;;;;;;12.10;10.50;;;19.90;99.90;;;;;;5039893;28;20049;-87
2023/08/12 10:06:53;;;;;;;13.35;11.50;;;19.90;99.90;;;;;;5034231;28;20107;-86
2023/08/12 10:09:19;;;;;;;13.50;10.57;;;19.90;99.90;;;;;;5050504;28;20040;-87
2023/08/12 10:11:46;;;;;;;14.13;10.82;;;19.90;99.90;;;;;;5023605;28;20120;-89
2023/08/12 10:14:13;;;;;;;12.40;10.65;;;19.90;99.90;;;;;;5050364;28;20047;-85
2023/08/12 10:16:39;;;;;;;10.98;9.88;;;19.90;99.90;;;;;;5017286;28;20563;-87
2023/08/12 10:19:05;;;;;;;12.80;11.38;;;20.00;99.90;;;;;;5065837;28;20040;-86
2023/08/12 10:21:32;;;;;;;13.43;11.30;;;19.90;99.90;;;;;;5018284;28;20408;-87
2023/08/12 10:23:59;;;;;;;10.50;9.40;;;19.90;99.90;;;;;;5038957;28;20045;-86
2023/08/12 10:26:25;;;;;;;10.05;8.60;;;20.00;99.90;;;;;;5036187;28;20635;-87
2023/08/12 10:28:51;;;;;;;7.38;6.50;;;20.00;99.90;;;;;;5042482;28;20033;-87
2023/08/12 10:31:19;;;;;;;6.95;6.35;;;20.00;99.90;;;;;;5038908;28;20035;-87
2023/08/12 10:33:48;;;;;;;7.03;6.32;;;19.90;99.90;;;;;;5055112;28;20025;-86
2023/08/12 10:36:15;;;;;;;8.80;7.13;;;20.00;99.90;;;;;;5054836;28;20037;-88
2023/08/12 10:38:41;;;;;;;7.57;6.60;;;20.00;99.90;;;;;;5067155;28;20049;-87
2023/08/12 10:41:21;;;;;;;8.10;6.82;;;20.00;99.90;;;;;;5037386;28;20084;-86
2023/08/12 10:43:58;;;;;;;8.00;7.20;;;20.00;99.90;;;;;;5037312;28;20060;-87
2023/08/12 10:46:31;;;;;;;7.18;6.45;;;20.00;99.90;;;;;;5036978;28;20037;-87
2023/08/12 10:49:11;;;;;;;8.27;5.78;;;20.00;99.90;;;;;;5053609;28;20055;-86
2023/08/12 10:51:40;;;;;;;6.90;6.25;;;20.10;99.90;;;;;;5053393;28;20044;-85
2023/08/12 10:54:31;;;;;;;6.50;5.80;;;20.10;99.90;;;;;;5037036;28;20053;-86
2023/08/12 10:57:02;;;;;;;5.95;5.22;;;20.10;99.90;;;;;;5038668;28;20409;-86
2023/08/12 10:59:46;;;;;;;6.90;5.50;;;20.20;99.90;;;;;;5037033;28;20478;-85
2023/08/12 11:02:26;;;;;;;5.53;4.82;;;20.20;99.90;;;;;;5033725;28;20099;-85
2023/08/12 11:04:54;;;;;;;6.03;4.53;;;20.20;99.90;;;;;;5033471;28;20041;-84
2023/08/12 11:07:23;;;;;;;5.10;3.67;;;20.20;99.90;;;;;;5042891;28;20048;-83
2023/08/12 11:09:53;;;;;;;5.60;4.00;;;20.20;99.90;;;;;;5061689;28;20084;-84
2023/08/12 11:12:28;;;;;;;5.32;4.00;;;20.20;99.90;;;;;;5029998;28;20397;-84
2023/08/12 11:14:57;;;;;;;5.20;4.50;;;20.10;99.90;;;;;;5040635;28;20033;-83
2023/08/12 11:17:39;;;;;;;5.03;4.35;;;20.20;99.90;;;;;;5036843;28;20040;-85
2023/08/12 11:20:12;;;;;;;4.30;3.90;;;20.20;99.90;;;;;;5042614;28;20037;-84
2023/08/12 11:22:40;;;;;;;3.92;3.63;;;20.30;99.90;;;;;;5056783;28;20491;-84
2023/08/12 11:25:14;;;;;;;4.07;3.65;;;20.30;99.90;;;;;;5039261;28;20033;-87
2023/08/12 11:27:44;;;;;;;3.80;3.13;;;20.30;99.90;;;;;;5058479;28;20033;-84
2023/08/12 11:30:20;;;;;;;4.28;3.70;;;20.30;99.90;;;;;;5036697;28;20515;-86
2023/08/12 11:32:48;;;;;;;2.90;2.38;;;20.20;99.90;;;;;;5036838;28;20049;-82
2023/08/12 11:35:15;;;;;;;2.28;1.80;;;20.20;99.90;;;;;;5020045;28;20032;-82
2023/08/12 11:37:43;;;;;;;2.05;1.90;;;20.20;99.90;;;;;;5036675;28;20361;-85
2023/08/12 11:40:11;;;;;;;1.90;1.73;;;20.20;99.90;;;;;;5036601;28;20041;-86
2023/08/12 11:42:39;;;;;;;2.22;1.73;;;20.10;99.90;;;;;;5036670;28;20040;-86
2023/08/12 11:45:06;;;;;;;2.00;1.80;;;20.10;99.90;;;;;;5036368;28;20484;-87
2023/08/12 11:47:33;;;;;;;1.73;1.63;;;20.10;99.90;;;;;;5053061;28;20392;-84
2023/08/12 11:50:01;;;;;;;1.83;1.73;;;20.10;99.90;;;;;;5019462;28;20091;-84
2023/08/12 11:52:27;;;;;;;2.75;1.65;;;20.10;99.90;;;;;;5048234;28;20053;-86
2023/08/12 11:54:53;;;;;;;1.67;1.58;;;20.10;99.90;;;;;;5043718;28;20089;-86
2023/08/12 11:57:21;;;;;;;3.70;1.42;;;20.10;99.90;;;;;;5025219;28;20043;-84
2023/08/12 11:59:47;;;;;;;2.60;1.20;;;20.20;99.90;;;;;;5034453;28;20136;-85
2023/08/12 12:02:13;;;;;;;1.50;1.40;;;20.20;99.90;;;;;;5055912;28;20115;-87
2023/08/12 12:04:42;;;;;;;1.30;1.20;;;20.30;99.90;;;;;;5035526;28;20048;-87
2023/08/12 12:07:23;;;;;;;1.25;1.15;;;20.40;99.90;;;;;;5035767;28;20055;-87
2023/08/12 12:09:53;;;;;;;1.83;1.25;;;20.40;99.90;;;;;;5049050;28;20037;-86
2023/08/12 12:12:24;;;;;;;1.85;1.30;;;20.50;99.90;;;;;;5074796;28;20040;-88
2023/08/12 12:14:55;;;;;;;1.60;1.40;;;20.50;99.90;;;;;;5043270;28;20048;-86
2023/08/12 12:17:22;;;;;;;1.70;1.60;;;20.50;99.90;;;;;;5035855;28;20048;-87
2023/08/12 12:19:54;;;;;;;1.45;1.30;;;20.60;99.90;;;;;;5032746;28;20107;-87
2023/08/12 12:22:20;;;;;;;1.75;1.65;;;20.70;99.90;;;;;;5020359;28;20440;-83
2023/08/12 12:24:47;;;;;;;2.22;2.03;;;20.80;99.90;;;;;;5067190;28;20087;-84
2023/08/12 12:27:13;;;;;;;2.10;1.90;;;20.90;99.90;;;;;;5043400;28;20084;-84
2023/08/12 12:29:39;;;;;;;2.20;2.00;;;20.90;99.90;;;;;;5015864;28;20107;-87
2023/08/12 12:32:05;;;;;;;2.35;2.15;;;20.90;99.90;;;;;;5050196;28;20397;-84